createdAt,value
2019-05-06T00:01:54.173Z,5.90
2019-05-06T00:04:14.728Z,6.00
2019-05-06T00:06:35.248Z,6.00
2019-05-06T00:08:55.958Z,5.90
2019-05-06T00:11:16.484Z,5.80
2019-05-06T00:13:37.041Z,5.80
2019-05-06T00:15:57.582Z,5.80
2019-05-06T00:18:18.099Z,5.80
2019-05-06T00:20:38.679Z,5.70
2019-05-06T00:23:04.235Z,5.70
2019-05-06T00:25:35.206Z,5.70
2019-05-06T00:28:05.831Z,5.70
2019-05-06T00:30:25.191Z,5.70
2019-05-06T00:32:45.657Z,5.60
2019-05-06T00:35:06.797Z,5.70
2019-05-06T00:37:27.395Z,5.70
2019-05-06T00:39:55.444Z,5.70
2019-05-06T00:42:17.646Z,5.70
2019-05-06T00:44:37.603Z,5.70
2019-05-06T00:46:58.063Z,5.70
2019-05-06T00:49:18.562Z,5.80
2019-05-06T00:51:39.017Z,5.70
2019-05-06T00:54:01.083Z,5.70
2019-05-06T00:56:21.680Z,5.70
2019-05-06T00:58:43.602Z,5.70
2019-05-06T01:01:04.736Z,5.60
2019-05-06T01:03:25.349Z,5.60
2019-05-06T01:05:46.842Z,5.60
2019-05-06T01:08:07.575Z,5.60
2019-05-06T01:10:28.173Z,5.60
2019-05-06T01:12:56.445Z,5.60
2019-05-06T01:15:23.763Z,5.60
2019-05-06T01:17:44.369Z,5.60
2019-05-06T01:20:07.795Z,5.50
2019-05-06T01:22:28.027Z,5.50
2019-05-06T01:24:48.545Z,5.50
2019-05-06T01:27:09.043Z,5.50
2019-05-06T01:29:29.544Z,5.50
2019-05-06T01:31:50.056Z,5.40
2019-05-06T01:34:10.546Z,5.40
2019-05-06T01:36:31.074Z,5.30
2019-05-06T01:38:55.725Z,5.40
2019-05-06T01:41:17.901Z,5.40
2019-05-06T01:43:40.033Z,5.40
2019-05-06T01:46:00.600Z,5.40
2019-05-06T01:48:24.508Z,5.40
2019-05-06T01:50:45.014Z,5.50
2019-05-06T01:53:05.608Z,5.40
2019-05-06T01:55:27.172Z,5.40
2019-05-06T01:57:47.628Z,5.40
2019-05-06T02:00:08.937Z,5.40
2019-05-06T02:02:29.876Z,5.30
2019-05-06T02:04:50.343Z,5.30
2019-05-06T02:07:10.876Z,5.30
2019-05-06T02:09:31.471Z,5.30
2019-05-06T02:11:53.675Z,5.30
2019-05-06T02:14:14.044Z,5.30
2019-05-06T02:16:34.577Z,5.30
2019-05-06T02:18:55.078Z,5.20
2019-05-06T02:21:17.207Z,5.10
2019-05-06T02:23:39.100Z,5.20
2019-05-06T02:25:59.067Z,5.20
2019-05-06T02:28:19.622Z,5.10
2019-05-06T02:30:57.733Z,5.00
2019-05-06T02:33:19.885Z,5.00
2019-05-06T02:35:47.896Z,5.00
2019-05-06T02:38:10.066Z,5.00
2019-05-06T02:40:33.260Z,5.00
2019-05-06T02:42:54.733Z,5.00
2019-05-06T02:45:16.389Z,5.00
2019-05-06T02:47:38.561Z,5.00
2019-05-06T02:50:04.470Z,4.90
2019-05-06T02:52:25.299Z,4.90
2019-05-06T02:54:45.830Z,4.90
2019-05-06T02:57:06.327Z,4.90
2019-05-06T02:59:26.872Z,4.90
2019-05-06T03:01:47.394Z,4.80
2019-05-06T03:04:07.884Z,4.80
2019-05-06T03:06:28.404Z,4.80
2019-05-06T03:08:48.949Z,4.90
2019-05-06T03:11:09.452Z,4.90
2019-05-06T03:13:29.923Z,4.90
2019-05-06T03:15:50.474Z,4.80
2019-05-06T03:18:14.305Z,4.80
2019-05-06T03:20:43.958Z,4.80
2019-05-06T03:23:09.094Z,4.90
2019-05-06T03:25:33.143Z,4.90
2019-05-06T03:27:53.339Z,4.90
2019-05-06T03:30:16.557Z,4.90
2019-05-06T03:32:41.765Z,4.90
2019-05-06T03:35:19.362Z,5.00
2019-05-06T03:37:20.127Z,5.00
2019-05-06T03:39:43.105Z,5.00
2019-05-06T03:42:04.572Z,5.00
2019-05-06T03:44:24.480Z,5.10
2019-05-06T03:46:55.244Z,5.00
2019-05-06T03:49:15.812Z,5.10
2019-05-06T03:51:37.263Z,5.20
2019-05-06T03:53:59.780Z,5.30
2019-05-06T03:56:23.856Z,5.20
2019-05-06T03:58:44.935Z,5.20
2019-05-06T04:01:05.625Z,5.20
2019-05-06T04:03:42.474Z,5.20
2019-05-06T04:05:48.650Z,5.30
2019-05-06T04:08:09.184Z,5.30
2019-05-06T04:10:29.768Z,5.30
2019-05-06T04:12:53.430Z,5.30
2019-05-06T04:15:14.290Z,5.40
2019-05-06T04:17:39.368Z,5.40
2019-05-06T04:20:04.819Z,5.40
2019-05-06T04:22:29.776Z,5.40
2019-05-06T04:25:08.386Z,5.40
2019-05-06T04:27:37.397Z,5.40
2019-05-06T04:29:58.894Z,5.40
2019-05-06T04:32:19.458Z,5.40
2019-05-06T04:34:42.898Z,5.50
2019-05-06T04:37:03.555Z,5.60
2019-05-06T04:39:24.112Z,5.60
2019-05-06T04:41:44.649Z,5.60
2019-05-06T04:44:05.426Z,5.60
2019-05-06T04:46:26.025Z,5.70
2019-05-06T04:48:46.555Z,5.70
2019-05-06T04:51:07.136Z,5.70
2019-05-06T04:53:27.612Z,5.80
2019-05-06T04:55:48.307Z,5.80
2019-05-06T04:58:09.134Z,5.80
2019-05-06T05:00:29.771Z,5.90
2019-05-06T05:02:50.944Z,6.00
2019-05-06T05:05:13.889Z,6.00
2019-05-06T05:07:33.745Z,6.10
2019-05-06T05:09:55.985Z,6.10
2019-05-06T05:12:34.171Z,6.10
2019-05-06T05:14:59.427Z,6.10
2019-05-06T05:17:24.428Z,6.10
2019-05-06T05:19:45.143Z,6.20
2019-05-06T05:22:08.201Z,6.30
2019-05-06T05:24:31.669Z,6.30
2019-05-06T05:26:52.315Z,6.40
2019-05-06T05:29:12.964Z,6.40
2019-05-06T05:31:33.540Z,6.40
2019-05-06T05:33:54.128Z,6.50
2019-05-06T05:36:14.696Z,6.50
2019-05-06T05:38:35.310Z,6.50
2019-05-06T05:40:55.829Z,6.50
2019-05-06T05:43:19.106Z,6.60
2019-05-06T05:45:39.276Z,6.60
2019-05-06T05:48:02.832Z,6.70
2019-05-06T05:50:33.860Z,6.70
2019-05-06T05:52:54.725Z,6.70
2019-05-06T05:55:15.424Z,6.80
2019-05-06T05:57:36.328Z,6.90
2019-05-06T05:59:56.926Z,6.90
2019-05-06T06:02:18.295Z,7.00
2019-05-06T06:04:51.978Z,7.10
2019-05-06T06:07:05.437Z,7.10
2019-05-06T06:09:27.800Z,7.30
2019-05-06T06:11:53.211Z,7.30
2019-05-06T06:14:33.594Z,7.40
2019-05-06T06:16:59.397Z,7.40
2019-05-06T06:19:30.400Z,7.50
2019-05-06T06:21:52.758Z,7.50
2019-05-06T06:24:22.418Z,7.60
2019-05-06T06:26:43.019Z,7.60
2019-05-06T06:29:03.679Z,7.60
2019-05-06T06:31:33.710Z,7.70
2019-05-06T06:33:58.682Z,7.70
2019-05-06T06:36:27.149Z,7.80
2019-05-06T06:39:02.135Z,7.90
2019-05-06T06:41:24.108Z,8.00
2019-05-06T06:43:46.534Z,8.00
2019-05-06T06:46:09.430Z,8.30
2019-05-06T06:48:28.829Z,8.40
2019-05-06T06:50:49.606Z,8.40
2019-05-06T06:53:12.172Z,8.40
2019-05-06T06:55:32.234Z,8.50
2019-05-06T06:58:02.786Z,8.50
2019-05-06T07:00:33.154Z,8.50
2019-05-06T07:03:03.842Z,8.70
2019-05-06T07:05:35.023Z,8.70
2019-05-06T07:07:55.687Z,8.90
2019-05-06T07:10:34.286Z,8.70
2019-05-06T07:12:54.934Z,8.80
2019-05-06T07:15:15.481Z,8.80
2019-05-06T07:17:35.986Z,8.80
2019-05-06T07:20:14.260Z,8.80
2019-05-06T07:22:37.564Z,8.80
2019-05-06T07:24:56.770Z,8.70
2019-05-06T07:27:18.157Z,8.60
2019-05-06T07:29:38.616Z,8.60
2019-05-06T07:31:59.193Z,8.60
2019-05-06T07:34:19.689Z,8.80
2019-05-06T07:36:42.961Z,8.90
2019-05-06T07:39:04.117Z,8.90
2019-05-06T07:41:36.476Z,9.00
2019-05-06T07:44:02.148Z,8.90
2019-05-06T07:46:24.512Z,8.90
2019-05-06T07:48:44.754Z,9.20
2019-05-06T07:51:05.293Z,9.20
2019-05-06T07:53:25.869Z,9.10
2019-05-06T07:55:46.472Z,9.10
2019-05-06T07:58:07.229Z,9.30
2019-05-06T08:00:27.971Z,9.20
2019-05-06T08:02:48.536Z,9.10
2019-05-06T08:05:09.129Z,9.20
2019-05-06T08:07:29.738Z,9.10
2019-05-06T08:09:52.806Z,9.10
2019-05-06T08:12:13.142Z,9.00
2019-05-06T08:14:43.324Z,9.20
2019-05-06T08:17:06.600Z,9.20
2019-05-06T08:19:27.134Z,9.30
2019-05-06T08:21:52.162Z,9.40
2019-05-06T08:24:14.025Z,9.70
2019-05-06T08:26:34.616Z,9.60
2019-05-06T08:28:55.050Z,9.70
2019-05-06T08:31:17.390Z,9.70
2019-05-06T08:33:37.902Z,9.90
2019-05-06T08:36:10.604Z,10.00
2019-05-06T08:38:22.509Z,10.00
2019-05-06T08:40:43.128Z,9.90
2019-05-06T08:43:04.660Z,9.80
2019-05-06T08:45:25.275Z,9.90
2019-05-06T08:47:45.779Z,9.90
2019-05-06T08:50:12.853Z,9.90
2019-05-06T08:52:52.440Z,10.00
2019-05-06T08:55:14.758Z,10.10
2019-05-06T08:57:35.372Z,10.10
2019-05-06T08:59:57.392Z,10.10
2019-05-06T09:02:19.077Z,10.20
2019-05-06T09:04:39.595Z,10.30
2019-05-06T09:07:00.255Z,10.20
2019-05-06T09:09:22.300Z,10.30
2019-05-06T09:11:43.399Z,10.20
2019-05-06T09:14:04.046Z,10.30
2019-05-06T09:16:24.659Z,10.40
2019-05-06T09:18:45.341Z,10.60
2019-05-06T09:21:05.896Z,10.80
2019-05-06T09:23:27.637Z,11.00
2019-05-06T09:25:48.300Z,11.20
2019-05-06T09:28:12.983Z,10.70
2019-05-06T09:30:37.295Z,10.90
2019-05-06T09:32:57.912Z,10.90
2019-05-06T09:35:18.350Z,11.00
2019-05-06T09:37:38.864Z,10.80
2019-05-06T09:39:59.412Z,10.70
2019-05-06T09:42:20.179Z,10.50
2019-05-06T09:44:42.622Z,10.50
2019-05-06T09:47:02.560Z,10.50
2019-05-06T09:49:25.046Z,10.30
2019-05-06T09:51:45.661Z,10.30
2019-05-06T09:54:12.913Z,10.20
2019-05-06T09:56:34.995Z,10.40
2019-05-06T09:58:55.504Z,10.40
2019-05-06T10:01:16.614Z,10.30
2019-05-06T10:03:38.401Z,10.50
2019-05-06T10:05:58.433Z,10.50
2019-05-06T10:08:19.047Z,10.60
2019-05-06T10:10:52.462Z,10.70
2019-05-06T10:13:02.767Z,10.60
2019-05-06T10:15:24.354Z,10.30
2019-05-06T10:17:46.792Z,10.30
2019-05-06T10:20:07.733Z,10.30
2019-05-06T10:22:28.513Z,10.20
2019-05-06T10:24:49.305Z,10.10
2019-05-06T10:27:12.105Z,10.10
2019-05-06T10:29:36.172Z,10.20
2019-05-06T10:32:13.684Z,10.30
2019-05-06T10:34:34.547Z,10.30
2019-05-06T10:37:19.192Z,10.40
2019-05-06T10:39:43.509Z,10.20
2019-05-06T10:42:13.484Z,10.20
2019-05-06T10:44:48.894Z,10.10
2019-05-06T10:47:09.653Z,10.30
2019-05-06T10:49:30.239Z,10.50
2019-05-06T10:52:04.396Z,10.50
2019-05-06T10:54:25.083Z,10.60
2019-05-06T10:56:53.750Z,10.50
2019-05-06T10:59:12.915Z,10.40
2019-05-06T11:01:34.995Z,10.50
2019-05-06T11:03:55.017Z,10.50
2019-05-06T11:06:16.804Z,10.50
2019-05-06T11:08:37.458Z,10.50
2019-05-06T11:11:11.177Z,10.40
2019-05-06T11:13:19.787Z,10.60
2019-05-06T11:15:43.160Z,10.50
2019-05-06T11:18:05.123Z,10.60
2019-05-06T11:20:27.344Z,10.50
2019-05-06T11:22:48.664Z,10.70
2019-05-06T11:25:08.989Z,10.70
2019-05-06T11:27:32.663Z,10.70
2019-05-06T11:29:53.160Z,10.80
2019-05-06T11:32:17.824Z,10.70
2019-05-06T11:34:48.560Z,10.70
2019-05-06T11:37:26.687Z,10.80
2019-05-06T11:39:47.304Z,10.90
2019-05-06T11:42:25.298Z,10.80
2019-05-06T11:44:29.673Z,10.90
2019-05-06T11:46:52.199Z,10.80
2019-05-06T11:49:12.633Z,10.70
2019-05-06T11:51:33.614Z,10.90
2019-05-06T11:53:54.341Z,10.70
2019-05-06T11:56:14.360Z,10.60
2019-05-06T11:58:45.218Z,10.50
2019-05-06T12:01:07.593Z,10.70
2019-05-06T12:03:27.619Z,10.70
2019-05-06T12:05:48.162Z,10.70
2019-05-06T12:08:08.635Z,10.60
2019-05-06T12:10:33.110Z,10.70
2019-05-06T12:12:53.409Z,10.90
2019-05-06T12:15:14.402Z,10.80
2019-05-06T12:17:34.983Z,10.70
2019-05-06T12:19:54.859Z,10.70
2019-05-06T12:22:15.437Z,10.60
2019-05-06T12:24:36.018Z,10.30
2019-05-06T12:26:56.483Z,10.20
2019-05-06T12:29:16.442Z,10.40
2019-05-06T12:31:38.974Z,10.50
2019-05-06T12:33:59.566Z,10.30
2019-05-06T12:36:23.428Z,10.50
2019-05-06T12:39:06.354Z,10.50
2019-05-06T12:41:25.168Z,10.30
2019-05-06T12:43:47.365Z,10.20
2019-05-06T12:46:13.278Z,10.20
2019-05-06T12:48:35.439Z,10.20
2019-05-06T12:50:57.531Z,10.10
2019-05-06T12:53:18.158Z,10.10
2019-05-06T12:55:38.813Z,10.20
2019-05-06T12:57:59.398Z,9.90
2019-05-06T13:00:23.245Z,10.20
2019-05-06T13:02:43.686Z,10.20
2019-05-06T13:05:06.569Z,10.10
2019-05-06T13:07:44.661Z,10.10
2019-05-06T13:10:06.769Z,10.20
2019-05-06T13:12:29.032Z,10.20
2019-05-06T13:14:49.627Z,10.10
2019-05-06T13:17:11.231Z,10.00
2019-05-06T13:19:32.171Z,10.00
2019-05-06T13:21:53.052Z,9.90
2019-05-06T13:24:13.589Z,9.80
2019-05-06T13:26:34.260Z,9.70
2019-05-06T13:28:55.873Z,9.80
2019-05-06T13:31:21.395Z,9.80
2019-05-06T13:33:46.188Z,9.90
2019-05-06T13:36:07.883Z,10.00
2019-05-06T13:38:28.378Z,10.20
2019-05-06T13:40:56.595Z,10.20
2019-05-06T13:43:13.401Z,10.10
2019-05-06T13:45:35.615Z,10.10
2019-05-06T13:47:57.584Z,10.00
2019-05-06T13:50:19.899Z,9.90
2019-05-06T13:52:42.557Z,9.90
2019-05-06T13:55:02.841Z,9.70
2019-05-06T13:57:23.337Z,9.80
2019-05-06T13:59:44.395Z,9.90
2019-05-06T14:02:09.575Z,9.90
2019-05-06T14:04:32.489Z,10.00
2019-05-06T14:06:52.903Z,10.20
2019-05-06T14:09:28.389Z,10.30
2019-05-06T14:11:36.767Z,10.60
2019-05-06T14:13:57.278Z,10.80
2019-05-06T14:16:17.793Z,10.90
2019-05-06T14:18:38.461Z,10.60
2019-05-06T14:20:59.010Z,10.40
2019-05-06T14:23:18.985Z,10.20
2019-05-06T14:25:53.295Z,10.30
2019-05-06T14:28:18.371Z,10.30
2019-05-06T14:30:42.812Z,10.20
2019-05-06T14:33:03.267Z,10.20
2019-05-06T14:35:23.938Z,10.00
2019-05-06T14:37:44.542Z,10.00
2019-05-06T14:40:08.542Z,10.20
2019-05-06T14:42:30.205Z,10.20
2019-05-06T14:44:50.717Z,10.20
2019-05-06T14:47:12.877Z,10.50
2019-05-06T14:49:33.124Z,10.30
2019-05-06T14:51:53.821Z,10.40
2019-05-06T14:54:14.775Z,10.40
2019-05-06T14:56:37.159Z,10.30
2019-05-06T14:59:04.156Z,10.30
2019-05-06T15:01:24.698Z,10.40
2019-05-06T15:03:45.242Z,10.30
2019-05-06T15:06:05.798Z,10.30
2019-05-06T15:08:26.340Z,10.30
2019-05-06T15:10:49.430Z,10.30
2019-05-06T15:13:09.012Z,10.30
2019-05-06T15:15:29.588Z,10.30
2019-05-06T15:17:50.122Z,10.40
2019-05-06T15:20:12.144Z,10.20
2019-05-06T15:22:32.693Z,10.10
2019-05-06T15:24:53.840Z,10.10
2019-05-06T15:27:14.513Z,10.20
2019-05-06T15:29:35.010Z,10.10
2019-05-06T15:32:06.172Z,10.20
2019-05-06T15:34:33.409Z,10.10
2019-05-06T15:36:55.017Z,10.10
2019-05-06T15:39:15.534Z,10.10
2019-05-06T15:41:36.072Z,10.10
2019-05-06T15:43:56.549Z,10.10
2019-05-06T15:46:17.111Z,10.10
2019-05-06T15:48:38.627Z,10.10
2019-05-06T15:50:59.177Z,10.20
2019-05-06T15:53:19.634Z,10.10
2019-05-06T15:55:40.165Z,10.10
2019-05-06T15:58:02.798Z,10.10
2019-05-06T16:00:23.118Z,10.20
2019-05-06T16:02:43.723Z,10.20
2019-05-06T16:05:13.793Z,10.20
2019-05-06T16:07:31.807Z,10.10
2019-05-06T16:09:54.988Z,10.10
2019-05-06T16:12:13.173Z,10.20
2019-05-06T16:14:35.144Z,10.20
2019-05-06T16:16:55.858Z,10.30
2019-05-06T16:19:16.387Z,10.20
2019-05-06T16:21:36.871Z,10.20
2019-05-06T16:23:59.111Z,10.10
2019-05-06T16:26:19.652Z,10.10
2019-05-06T16:28:41.727Z,10.00
2019-05-06T16:31:02.542Z,9.90
2019-05-06T16:33:24.150Z,9.90
2019-05-06T16:35:44.775Z,9.90
2019-05-06T16:38:05.346Z,9.90
2019-05-06T16:40:26.000Z,9.90
2019-05-06T16:42:46.616Z,9.70
2019-05-06T16:45:08.684Z,9.80
2019-05-06T16:47:38.972Z,9.70
2019-05-06T16:49:59.522Z,9.80
2019-05-06T16:52:19.977Z,9.80
2019-05-06T16:54:42.559Z,9.80
2019-05-06T16:57:07.105Z,9.80
2019-05-06T16:59:27.838Z,9.80
2019-05-06T17:01:49.043Z,9.80
2019-05-06T17:04:14.301Z,9.80
2019-05-06T17:06:36.108Z,9.80
2019-05-06T17:08:56.758Z,9.80
2019-05-06T17:11:27.109Z,9.70
2019-05-06T17:13:39.361Z,9.70
2019-05-06T17:16:02.346Z,9.70
2019-05-06T17:18:22.732Z,9.70
2019-05-06T17:20:43.353Z,9.60
2019-05-06T17:23:03.945Z,9.70
2019-05-06T17:25:24.493Z,9.70
2019-05-06T17:27:46.654Z,9.60
2019-05-06T17:30:13.096Z,9.60
2019-05-06T17:32:36.951Z,9.60
2019-05-06T17:34:58.819Z,9.60
2019-05-06T17:37:27.084Z,9.50
2019-05-06T17:40:03.928Z,9.50
2019-05-06T17:42:11.362Z,9.40
2019-05-06T17:44:32.697Z,9.40
2019-05-06T17:46:56.535Z,9.30
2019-05-06T17:49:20.936Z,9.20
2019-05-06T17:51:42.667Z,9.20
2019-05-06T17:54:03.603Z,9.10
2019-05-06T17:56:23.383Z,9.10
2019-05-06T17:58:43.978Z,9.00
2019-05-06T18:01:06.097Z,8.90
2019-05-06T18:03:26.860Z,8.80
2019-05-06T18:05:47.584Z,8.70
2019-05-06T18:08:08.057Z,8.70
2019-05-06T18:10:28.666Z,8.70
2019-05-06T18:12:49.307Z,8.70
2019-05-06T18:15:09.941Z,8.60
2019-05-06T18:17:30.462Z,8.60
2019-05-06T18:19:51.009Z,8.50
2019-05-06T18:22:13.124Z,8.50
2019-05-06T18:24:33.971Z,8.60
2019-05-06T18:26:54.515Z,8.60
2019-05-06T18:29:15.160Z,8.40
2019-05-06T18:31:35.688Z,8.40
2019-05-06T18:33:56.194Z,8.40
2019-05-06T18:36:16.805Z,8.40
2019-05-06T18:38:37.459Z,8.30
2019-05-06T18:40:59.558Z,8.30
2019-05-06T18:43:19.992Z,8.20
2019-05-06T18:45:41.918Z,8.20
2019-05-06T18:48:03.400Z,8.10
2019-05-06T18:50:23.887Z,8.10
2019-05-06T18:52:44.535Z,8.00
2019-05-06T18:55:06.090Z,8.00
2019-05-06T18:57:27.045Z,8.00
2019-05-06T18:59:48.024Z,8.00
2019-05-06T19:02:08.588Z,8.00
2019-05-06T19:04:33.795Z,8.00
2019-05-06T19:07:09.232Z,7.90
2019-05-06T19:09:22.674Z,7.90
2019-05-06T19:11:42.732Z,7.80
2019-05-06T19:14:03.346Z,7.80
2019-05-06T19:16:23.922Z,7.80
2019-05-06T19:18:45.797Z,7.80
2019-05-06T19:21:06.265Z,7.70
2019-05-06T19:23:26.878Z,7.60
2019-05-06T19:25:47.395Z,7.50
2019-05-06T19:28:08.634Z,7.50
2019-05-06T19:30:29.155Z,7.50
2019-05-06T19:32:49.751Z,7.50
2019-05-06T19:35:10.443Z,7.50
2019-05-06T19:37:32.834Z,7.50
2019-05-06T19:39:53.102Z,7.40
2019-05-06T19:42:13.638Z,7.20
2019-05-06T19:44:34.243Z,7.20
2019-05-06T19:46:54.774Z,7.10
2019-05-06T19:49:15.461Z,7.00
2019-05-06T19:51:36.012Z,6.90
2019-05-06T19:53:56.517Z,6.90
2019-05-06T19:56:17.091Z,6.80
2019-05-06T19:58:37.859Z,6.70
2019-05-06T20:00:58.329Z,6.60
2019-05-06T20:03:19.673Z,6.60
2019-05-06T20:05:54.517Z,6.50
2019-05-06T20:08:28.458Z,6.40
2019-05-06T20:11:06.938Z,6.60
2019-05-06T20:13:27.577Z,6.60
2019-05-06T20:15:48.013Z,6.40
2019-05-06T20:18:08.939Z,6.40
2019-05-06T20:20:32.679Z,6.40
2019-05-06T20:22:51.175Z,6.40
2019-05-06T20:25:12.551Z,6.30
2019-05-06T20:27:33.098Z,6.20
2019-05-06T20:29:53.560Z,6.00
2019-05-06T20:32:14.041Z,5.90
2019-05-06T20:34:34.609Z,5.70
2019-05-06T20:36:55.106Z,5.80
2019-05-06T20:39:15.597Z,5.70
2019-05-06T20:41:36.064Z,5.60
2019-05-06T20:43:56.626Z,5.50
2019-05-06T20:46:17.075Z,5.50
2019-05-06T20:48:37.691Z,5.50
2019-05-06T20:50:58.219Z,5.40
2019-05-06T20:53:18.800Z,5.40
2019-05-06T20:55:39.523Z,5.30
2019-05-06T20:57:59.991Z,5.20
2019-05-06T21:00:22.326Z,5.40
2019-05-06T21:02:42.800Z,5.30
2019-05-06T21:05:04.987Z,5.30
2019-05-06T21:07:24.979Z,5.20
2019-05-06T21:09:45.564Z,5.10
2019-05-06T21:12:06.141Z,5.10
2019-05-06T21:14:26.733Z,5.10
2019-05-06T21:16:48.151Z,5.30
2019-05-06T21:19:08.931Z,5.40
2019-05-06T21:21:29.416Z,5.30
2019-05-06T21:23:51.860Z,5.30
2019-05-06T21:26:13.668Z,5.30
2019-05-06T21:28:33.736Z,5.40
2019-05-06T21:30:54.409Z,5.30
2019-05-06T21:33:15.038Z,5.20
2019-05-06T21:35:35.736Z,5.10
2019-05-06T21:37:56.198Z,5.10
2019-05-06T21:40:16.715Z,5.10
2019-05-06T21:42:37.218Z,4.90
2019-05-06T21:44:57.920Z,4.90
2019-05-06T21:47:18.644Z,4.90
2019-05-06T21:49:39.279Z,5.20
2019-05-06T21:52:01.663Z,5.20
2019-05-06T21:54:23.188Z,5.30
2019-05-06T21:56:43.303Z,5.20
2019-05-06T21:59:03.951Z,5.00
2019-05-06T22:01:25.078Z,5.20
2019-05-06T22:03:45.606Z,5.00
2019-05-06T22:06:06.221Z,4.90
2019-05-06T22:08:26.764Z,4.80
2019-05-06T22:10:49.012Z,4.80
2019-05-06T22:13:08.972Z,4.90
2019-05-06T22:15:29.506Z,4.80
2019-05-06T22:17:50.016Z,4.90
2019-05-06T22:20:11.551Z,5.00
2019-05-06T22:22:42.396Z,5.10
2019-05-06T22:25:02.910Z,4.90
2019-05-06T22:27:23.483Z,4.80
2019-05-06T22:29:44.178Z,4.80
2019-05-06T22:32:04.860Z,4.70
2019-05-06T22:34:25.417Z,4.90
2019-05-06T22:36:46.004Z,4.90
2019-05-06T22:39:06.600Z,4.90
2019-05-06T22:41:28.234Z,4.90
2019-05-06T22:43:48.760Z,4.90
2019-05-06T22:46:09.407Z,4.80
2019-05-06T22:48:32.240Z,4.90
2019-05-06T22:50:53.027Z,4.90
2019-05-06T22:53:13.599Z,4.90
2019-05-06T22:55:34.080Z,4.90
2019-05-06T22:57:54.613Z,5.00
2019-05-06T23:00:22.378Z,5.00
2019-05-06T23:02:59.494Z,5.00
2019-05-06T23:05:20.009Z,5.00
2019-05-06T23:07:42.282Z,5.00
2019-05-06T23:10:02.486Z,5.00
2019-05-06T23:12:23.219Z,4.90
2019-05-06T23:14:43.765Z,4.80
2019-05-06T23:17:04.466Z,4.80
2019-05-06T23:19:25.109Z,4.80
2019-05-06T23:21:45.646Z,4.70
2019-05-06T23:24:06.349Z,4.60
2019-05-06T23:26:26.935Z,4.60
2019-05-06T23:28:47.888Z,4.70
2019-05-06T23:31:08.875Z,4.80
2019-05-06T23:33:29.416Z,4.80
2019-05-06T23:35:51.500Z,4.80
2019-05-06T23:38:48.101Z,4.70
2019-05-06T23:41:44.811Z,4.60
2019-05-06T23:44:45.799Z,4.70
2019-05-06T23:47:39.412Z,4.80
2019-05-06T23:50:39.010Z,4.70
2019-05-06T23:53:35.548Z,4.70
2019-05-06T23:56:32.664Z,4.90
2019-05-06T23:58:54.099Z,4.80
